Time;durP1;ratioP1;P1;durP2;ratioP2;P2;SDS_P1;SDS_P2;PMS_P1;PMS_P2;Temp;Humidity;BMP_temperature;BMP_pressure;BME280_temperature;BME280_humidity;BME280_pressure;Samples;Min_cycle;Max_cycle;Signal;HPM_P1;HPM_P2
2022/07/26 00:00:18;;;;;;;1.17;0.50;;;23.90;57.40;;;;;;5052666;28;20036;-77
2022/07/26 00:02:44;;;;;;;1.23;0.47;;;23.90;57.40;;;;;;5051679;28;20024;-77
2022/07/26 00:05:10;;;;;;;0.88;0.50;;;23.90;57.40;;;;;;5051250;28;20380;-77
2022/07/26 00:07:35;;;;;;;0.50;0.50;;;23.90;57.50;;;;;;5051380;28;20067;-77
2022/07/26 00:10:01;;;;;;;1.65;0.40;;;23.90;57.50;;;;;;5052453;28;20031;-77
2022/07/26 00:12:27;;;;;;;1.00;0.50;;;23.90;57.60;;;;;;5051300;28;20059;-77
2022/07/26 00:14:52;;;;;;;3.15;0.60;;;23.90;57.50;;;;;;5052450;28;20036;-77
2022/07/26 00:17:18;;;;;;;1.73;0.57;;;23.80;57.50;;;;;;5051333;28;20028;-77
2022/07/26 00:19:44;;;;;;;0.65;0.50;;;23.90;57.50;;;;;;5052213;28;20021;-77
2022/07/26 00:24:53;;;;;;;1.17;0.40;;;23.80;57.50;;;;;;5050914;28;20025;-77
2022/07/26 00:27:19;;;;;;;0.40;0.40;;;23.80;57.60;;;;;;5050981;28;20399;-77
2022/07/26 00:29:44;;;;;;;0.40;0.38;;;23.80;57.60;;;;;;5052495;28;20021;-77
2022/07/26 00:32:10;;;;;;;1.00;0.45;;;23.80;57.50;;;;;;5051123;28;20036;-77
2022/07/26 00:34:36;;;;;;;1.00;0.55;;;23.80;57.50;;;;;;5051032;28;20025;-77
2022/07/26 00:37:01;;;;;;;1.23;0.50;;;23.80;57.60;;;;;;5052130;28;20037;-77
2022/07/26 00:39:27;;;;;;;5.18;0.50;;;23.80;57.60;;;;;;5051114;28;20025;-77
2022/07/26 00:41:53;;;;;;;0.60;0.40;;;23.80;57.60;;;;;;5050806;28;20017;-77
2022/07/26 00:44:19;;;;;;;1.00;0.43;;;23.80;57.70;;;;;;5052155;28;20017;-77
2022/07/26 00:46:44;;;;;;;1.45;0.40;;;23.80;57.70;;;;;;5051158;28;20065;-77
2022/07/26 00:49:10;;;;;;;0.82;0.40;;;23.90;57.80;;;;;;5051885;28;20091;-77
2022/07/26 00:51:36;;;;;;;0.75;0.30;;;23.80;57.80;;;;;;5051044;28;20120;-77
2022/07/26 00:54:02;;;;;;;0.80;0.40;;;23.80;57.90;;;;;;5050676;28;20402;-77
2022/07/26 00:56:28;;;;;;;0.43;0.43;;;23.80;58.00;;;;;;5050984;28;20570;-77
2022/07/26 00:58:54;;;;;;;0.73;0.43;;;23.80;57.90;;;;;;5050746;28;20053;-77
2022/07/26 01:01:19;;;;;;;0.63;0.35;;;23.80;58.00;;;;;;5051969;28;20033;-77
2022/07/26 01:03:45;;;;;;;1.17;0.50;;;23.80;58.00;;;;;;5052061;28;20021;-78
2022/07/26 01:06:11;;;;;;;0.68;0.52;;;23.90;58.10;;;;;;5034193;28;20033;-77
2022/07/26 01:08:36;;;;;;;2.42;0.70;;;23.90;58.20;;;;;;5050742;28;20090;-76
2022/07/26 01:11:02;;;;;;;1.80;0.43;;;23.80;58.30;;;;;;5051972;28;20083;-76
2022/07/26 01:13:28;;;;;;;2.08;0.60;;;23.80;58.20;;;;;;5051748;28;20049;-76
2022/07/26 01:15:53;;;;;;;2.10;0.40;;;23.80;58.20;;;;;;5050602;28;20502;-76
2022/07/26 01:18:19;;;;;;;0.82;0.50;;;23.80;58.20;;;;;;5050521;28;20112;-76
2022/07/26 01:20:45;;;;;;;1.17;0.40;;;23.80;58.20;;;;;;5050451;28;20033;-76
2022/07/26 01:23:10;;;;;;;1.55;0.50;;;23.80;58.30;;;;;;5034022;28;20040;-76
2022/07/26 01:25:37;;;;;;;0.60;0.57;;;23.80;58.30;;;;;;5050910;28;20476;-76
2022/07/26 01:28:03;;;;;;;2.13;0.35;;;23.80;58.30;;;;;;5050468;28;20028;-77
2022/07/26 01:30:29;;;;;;;0.50;0.50;;;23.80;58.30;;;;;;5050572;28;20411;-77
2022/07/26 01:32:55;;;;;;;1.10;0.50;;;23.80;58.40;;;;;;5050254;28;20025;-77
2022/07/26 01:35:20;;;;;;;1.98;0.38;;;23.80;58.40;;;;;;5051813;28;20083;-77
2022/07/26 01:37:46;;;;;;;2.88;0.50;;;23.80;58.40;;;;;;5055625;28;20025;-77
2022/07/26 01:40:13;;;;;;;1.35;0.50;;;23.80;58.40;;;;;;5055230;28;20025;-77
2022/07/26 01:42:39;;;;;;;1.15;0.55;;;23.80;58.50;;;;;;5054086;28;20020;-77
2022/07/26 01:45:07;;;;;;;0.60;0.40;;;23.80;58.60;;;;;;5054193;28;20017;-77
2022/07/26 01:47:33;;;;;;;1.85;0.40;;;23.80;59.50;;;;;;5055448;28;20033;-77
2022/07/26 01:49:58;;;;;;;0.88;0.50;;;23.80;58.60;;;;;;5055146;28;20033;-77
2022/07/26 01:52:25;;;;;;;1.95;0.50;;;23.80;58.60;;;;;;5054310;28;20029;-77
2022/07/26 01:54:51;;;;;;;0.98;0.40;;;23.80;58.60;;;;;;5053905;28;20032;-77
2022/07/26 01:57:17;;;;;;;3.80;0.60;;;23.80;58.60;;;;;;5055071;28;20021;-77
2022/07/26 01:59:42;;;;;;;1.38;0.73;;;23.80;58.60;;;;;;5037279;28;20029;-77
2022/07/26 02:02:08;;;;;;;0.80;0.45;;;23.80;58.60;;;;;;5054846;28;20021;-77
2022/07/26 02:07:18;;;;;;;0.60;0.30;;;23.80;58.60;;;;;;5054814;28;20109;-77
2022/07/26 02:09:43;;;;;;;1.98;0.40;;;23.80;59.60;;;;;;5053796;28;20108;-77
2022/07/26 02:12:09;;;;;;;0.65;0.47;;;23.80;58.60;;;;;;5054460;28;20091;-77
2022/07/26 02:14:35;;;;;;;1.30;0.40;;;23.80;58.70;;;;;;5054889;28;20113;-77
2022/07/26 02:17:00;;;;;;;1.00;0.50;;;23.80;58.70;;;;;;5054602;28;20092;-72
2022/07/26 02:19:29;;;;;;;1.15;0.50;;;23.80;58.70;;;;;;5054624;28;20112;-72
2022/07/26 02:21:55;;;;;;;0.57;0.43;;;23.80;58.80;;;;;;5053576;28;20087;-72
2022/07/26 02:24:20;;;;;;;0.57;0.40;;;23.70;58.70;;;;;;5054663;28;20381;-72
2022/07/26 02:26:46;;;;;;;1.85;0.50;;;23.80;58.80;;;;;;5053332;28;20466;-71
2022/07/26 02:29:12;;;;;;;1.02;0.40;;;23.80;58.80;;;;;;5053328;28;20066;-72
2022/07/26 02:31:37;;;;;;;1.05;0.40;;;23.70;58.70;;;;;;5054312;28;20025;-72
2022/07/26 02:34:03;;;;;;;1.40;0.50;;;23.70;58.80;;;;;;5054332;28;20055;-72
2022/07/26 02:36:29;;;;;;;1.23;0.50;;;23.80;58.90;;;;;;5053198;28;20147;-72
2022/07/26 02:38:54;;;;;;;0.52;0.32;;;23.70;58.80;;;;;;5054453;28;20025;-72
2022/07/26 02:41:20;;;;;;;3.78;0.70;;;23.70;58.90;;;;;;5054073;28;20488;-72
2022/07/26 02:43:45;;;;;;;0.68;0.40;;;23.70;58.90;;;;;;5054409;28;20521;-72
2022/07/26 02:46:11;;;;;;;1.95;0.40;;;23.70;59.00;;;;;;5053777;28;20557;-72
2022/07/26 02:48:37;;;;;;;1.30;0.50;;;23.80;59.00;;;;;;5053448;28;20064;-72
2022/07/26 02:51:02;;;;;;;0.65;0.43;;;23.70;58.90;;;;;;5054125;28;20029;-72
2022/07/26 02:53:28;;;;;;;1.00;0.40;;;23.70;58.90;;;;;;5054100;28;20036;-71
2022/07/26 02:55:54;;;;;;;1.23;0.50;;;23.70;58.90;;;;;;5036209;28;20052;-72
2022/07/26 02:58:20;;;;;;;1.13;0.50;;;23.70;58.90;;;;;;5053677;28;20021;-71
2022/07/26 03:00:46;;;;;;;0.52;0.30;;;23.70;59.00;;;;;;5053863;28;20021;-72
2022/07/26 03:03:12;;;;;;;1.08;0.47;;;23.80;59.00;;;;;;5052750;28;20075;-72
2022/07/26 03:05:38;;;;;;;0.63;0.40;;;23.80;59.00;;;;;;5052816;28;20032;-71
2022/07/26 03:08:04;;;;;;;0.45;0.30;;;23.70;59.00;;;;;;5053735;28;20024;-72
2022/07/26 03:10:30;;;;;;;0.60;0.40;;;23.70;59.00;;;;;;5052430;28;20029;-72
2022/07/26 03:12:55;;;;;;;1.10;0.77;;;23.80;59.10;;;;;;5052270;28;20124;-72
2022/07/26 03:15:21;;;;;;;1.08;0.35;;;23.70;59.00;;;;;;5052375;28;20111;-72
2022/07/26 03:17:47;;;;;;;0.85;0.40;;;23.80;59.20;;;;;;5052541;28;20056;-71
2022/07/26 03:20:13;;;;;;;1.48;0.60;;;23.80;59.20;;;;;;5053192;28;20478;-72
2022/07/26 03:22:38;;;;;;;2.03;0.50;;;23.80;59.20;;;;;;5052504;28;20031;-72
2022/07/26 03:25:05;;;;;;;1.45;0.52;;;23.80;59.20;;;;;;5052325;28;20471;-72
2022/07/26 03:27:30;;;;;;;2.80;0.88;;;23.80;59.20;;;;;;5052988;28;20079;-72
2022/07/26 03:29:56;;;;;;;2.45;0.50;;;23.70;59.20;;;;;;5052132;28;20036;-72
2022/07/26 03:32:22;;;;;;;0.50;0.30;;;23.70;59.20;;;;;;5053293;28;20075;-72
2022/07/26 03:34:47;;;;;;;0.68;0.50;;;23.70;59.20;;;;;;5053114;28;20032;-72
2022/07/26 03:37:13;;;;;;;0.75;0.43;;;23.70;59.20;;;;;;5053186;28;20399;-72
2022/07/26 03:39:39;;;;;;;0.63;0.30;;;23.70;59.20;;;;;;5053110;28;20498;-71
2022/07/26 03:42:05;;;;;;;1.52;0.32;;;23.70;59.20;;;;;;5051650;28;20021;-72
2022/07/26 03:44:30;;;;;;;1.02;0.60;;;23.70;59.10;;;;;;5035136;28;20032;-72
2022/07/26 03:46:56;;;;;;;1.25;0.52;;;23.70;59.20;;;;;;5052146;28;20059;-72
2022/07/26 03:49:22;;;;;;;0.73;0.50;;;23.80;59.20;;;;;;5052928;28;20074;-72
2022/07/26 03:51:47;;;;;;;1.33;0.30;;;23.80;59.20;;;;;;5051925;28;20027;-71
2022/07/26 03:54:13;;;;;;;0.70;0.30;;;23.80;59.20;;;;;;5052696;28;20078;-72
2022/07/26 03:56:39;;;;;;;1.15;0.43;;;23.70;59.20;;;;;;5051352;28;20029;-72
2022/07/26 03:59:06;;;;;;;0.85;0.52;;;23.80;59.20;;;;;;5051658;28;20025;-72
2022/07/26 04:01:33;;;;;;;1.02;0.35;;;23.80;59.20;;;;;;5034918;28;20380;-72
2022/07/26 04:03:59;;;;;;;0.32;0.32;;;23.80;59.20;;;;;;5051558;28;20483;-72
2022/07/26 04:06:25;;;;;;;0.30;0.22;;;23.70;59.20;;;;;;5052674;28;20021;-72
2022/07/26 04:08:50;;;;;;;0.65;0.30;;;23.80;59.20;;;;;;5052695;28;20025;-72
2022/07/26 04:11:16;;;;;;;1.13;0.50;;;23.70;59.10;;;;;;5052282;28;20031;-72
2022/07/26 04:13:42;;;;;;;0.45;0.30;;;23.70;59.20;;;;;;5052866;28;20057;-72
2022/07/26 04:16:07;;;;;;;0.65;0.43;;;23.80;59.20;;;;;;5051276;28;20016;-72
2022/07/26 04:18:33;;;;;;;0.80;0.50;;;23.80;59.20;;;;;;5051383;28;20047;-72
2022/07/26 04:20:58;;;;;;;1.90;0.47;;;23.80;59.20;;;;;;5052463;28;20021;-72
2022/07/26 04:23:24;;;;;;;0.50;0.30;;;23.80;59.20;;;;;;5052451;28;20032;-72
2022/07/26 04:25:50;;;;;;;0.82;0.40;;;23.80;59.20;;;;;;5052234;28;20074;-72
2022/07/26 04:28:15;;;;;;;0.47;0.20;;;23.70;59.20;;;;;;5051117;28;20033;-72
2022/07/26 04:30:41;;;;;;;0.65;0.40;;;23.80;59.20;;;;;;5051096;28;20025;-72
2022/07/26 04:33:07;;;;;;;0.30;0.22;;;23.70;59.20;;;;;;5034335;28;20029;-72
2022/07/26 04:35:32;;;;;;;0.88;0.30;;;23.70;59.20;;;;;;5051019;28;20063;-72
2022/07/26 04:37:58;;;;;;;0.75;0.40;;;23.70;59.20;;;;;;5052439;28;20040;-72
2022/07/26 04:40:26;;;;;;;0.80;0.40;;;23.70;59.10;;;;;;5034215;28;20063;-77
2022/07/26 04:42:52;;;;;;;1.23;0.40;;;23.80;59.20;;;;;;5052275;28;20048;-77
2022/07/26 04:45:18;;;;;;;0.95;0.45;;;23.70;59.20;;;;;;5052059;28;20126;-77
2022/07/26 04:47:44;;;;;;;0.82;0.40;;;23.70;59.10;;;;;;5051166;28;20063;-77
2022/07/26 04:50:10;;;;;;;0.43;0.30;;;23.70;59.20;;;;;;5050713;28;20025;-77
2022/07/26 04:52:36;;;;;;;0.68;0.40;;;23.70;59.30;;;;;;5034375;28;20029;-77
2022/07/26 04:55:02;;;;;;;0.50;0.38;;;23.70;59.30;;;;;;5050739;28;20032;-77
2022/07/26 04:57:28;;;;;;;1.70;0.43;;;23.70;59.20;;;;;;5050505;28;20044;-77
2022/07/26 04:59:53;;;;;;;0.63;0.30;;;23.80;59.30;;;;;;5050797;28;20029;-77
2022/07/26 05:02:19;;;;;;;0.68;0.32;;;23.70;59.20;;;;;;5051968;28;20110;-77
2022/07/26 05:04:45;;;;;;;0.30;0.30;;;23.80;59.30;;;;;;5052155;28;20100;-77
2022/07/26 05:07:10;;;;;;;0.73;0.30;;;23.70;59.20;;;;;;5050617;28;20033;-77
2022/07/26 05:09:36;;;;;;;0.63;0.35;;;23.70;59.20;;;;;;5051912;28;20021;-77
2022/07/26 05:12:02;;;;;;;0.25;0.20;;;23.70;59.20;;;;;;5053659;28;20376;-77
2022/07/26 05:14:27;;;;;;;0.45;0.30;;;23.70;59.20;;;;;;5055883;28;20021;-77
2022/07/26 05:16:53;;;;;;;2.00;0.30;;;23.70;59.20;;;;;;5055973;28;20486;-77
2022/07/26 05:19:19;;;;;;;0.40;0.30;;;23.70;59.20;;;;;;5055679;28;20053;-77
2022/07/26 05:21:45;;;;;;;0.82;0.40;;;23.70;59.20;;;;;;5054677;28;20032;-77
2022/07/26 05:24:10;;;;;;;1.42;0.47;;;23.70;59.30;;;;;;5055654;28;20024;-77
2022/07/26 05:26:36;;;;;;;0.70;0.22;;;23.70;59.30;;;;;;5055494;28;20021;-77
2022/07/26 05:29:01;;;;;;;0.63;0.32;;;23.80;59.30;;;;;;5054700;28;20025;-77
2022/07/26 05:31:27;;;;;;;0.82;0.30;;;23.70;59.30;;;;;;5054202;28;20112;-77
2022/07/26 05:33:54;;;;;;;0.85;0.40;;;23.70;59.20;;;;;;5055704;28;20036;-77
2022/07/26 05:36:20;;;;;;;1.65;0.40;;;23.70;59.20;;;;;;5055359;28;20025;-77
2022/07/26 05:38:45;;;;;;;0.40;0.30;;;23.70;59.20;;;;;;5037683;28;20021;-77
2022/07/26 05:41:11;;;;;;;0.30;0.30;;;23.70;59.20;;;;;;5054159;28;20025;-77
2022/07/26 05:43:37;;;;;;;1.38;0.20;;;23.70;59.20;;;;;;5055422;28;20044;-77
2022/07/26 05:46:02;;;;;;;0.20;0.20;;;23.70;59.30;;;;;;5055613;28;20020;-77
2022/07/26 05:48:28;;;;;;;0.95;0.20;;;23.70;59.30;;;;;;5050740;28;20115;-76
2022/07/26 05:50:54;;;;;;;0.40;0.30;;;23.70;59.30;;;;;;5052095;28;20491;-76
2022/07/26 05:53:19;;;;;;;1.20;0.40;;;23.70;59.40;;;;;;5051590;28;20013;-76
2022/07/26 05:55:45;;;;;;;1.23;0.40;;;23.70;59.40;;;;;;5052074;28;20549;-76
2022/07/26 05:58:11;;;;;;;0.95;0.40;;;23.70;59.30;;;;;;5056634;28;20491;-77
2022/07/26 06:00:36;;;;;;;0.70;0.30;;;23.70;59.00;;;;;;5051048;28;20031;-78
2022/07/26 06:03:21;;;;;;;0.57;0.30;;;23.70;58.60;;;;;;5052044;28;20023;-76
2022/07/26 06:05:50;;;;;;;0.57;0.30;;;23.60;58.50;;;;;;5051359;28;20132;-76
2022/07/26 06:08:16;;;;;;;1.10;0.38;;;23.60;58.60;;;;;;5053610;28;20110;-77
2022/07/26 06:10:41;;;;;;;0.80;0.32;;;23.60;59.50;;;;;;5057263;28;20061;-77
2022/07/26 06:13:07;;;;;;;0.40;0.20;;;23.60;58.40;;;;;;5053077;28;20049;-76
2022/07/26 06:15:33;;;;;;;0.45;0.38;;;23.60;58.30;;;;;;5059257;28;20075;-75
2022/07/26 06:17:58;;;;;;;1.35;0.43;;;23.60;58.30;;;;;;5051025;28;20017;-75
2022/07/26 06:20:24;;;;;;;0.40;0.20;;;23.60;58.20;;;;;;5050567;28;20032;-75
2022/07/26 06:22:51;;;;;;;0.75;0.38;;;23.60;58.20;;;;;;5051840;28;20017;-74
2022/07/26 06:25:16;;;;;;;1.02;0.40;;;23.60;58.20;;;;;;5051514;28;20024;-74
2022/07/26 06:27:42;;;;;;;0.70;0.40;;;23.50;58.20;;;;;;5051697;28;20095;-78
2022/07/26 06:30:08;;;;;;;1.00;0.40;;;23.60;58.20;;;;;;5053952;28;20075;-78
2022/07/26 06:32:34;;;;;;;0.68;0.30;;;23.50;58.10;;;;;;5049813;28;20021;-78
2022/07/26 06:34:59;;;;;;;0.50;0.25;;;23.50;58.10;;;;;;5037092;28;20040;-78
2022/07/26 06:37:25;;;;;;;1.08;0.40;;;23.50;58.10;;;;;;5051692;28;20017;-78
2022/07/26 06:39:51;;;;;;;0.98;0.30;;;23.50;58.10;;;;;;5052734;28;20031;-78
2022/07/26 06:42:17;;;;;;;0.65;0.30;;;23.50;58.10;;;;;;5052029;28;20025;-77
2022/07/26 06:44:42;;;;;;;0.30;0.25;;;23.50;58.10;;;;;;5051629;28;20028;-78
2022/07/26 06:47:08;;;;;;;0.73;0.43;;;23.50;58.10;;;;;;5050120;28;20083;-78
2022/07/26 06:49:33;;;;;;;0.43;0.30;;;23.50;58.10;;;;;;5052416;28;20021;-78
2022/07/26 06:51:59;;;;;;;3.33;0.70;;;23.50;58.20;;;;;;5057147;28;20368;-77
2022/07/26 06:54:25;;;;;;;14.50;3.35;;;23.50;58.20;;;;;;5052532;28;20060;-77
2022/07/26 06:56:50;;;;;;;13.63;2.38;;;23.50;58.30;;;;;;5052313;28;20104;-77
2022/07/26 06:59:16;;;;;;;11.73;2.30;;;23.50;58.30;;;;;;5054069;28;20461;-77
2022/07/26 07:01:42;;;;;;;7.38;1.92;;;23.50;58.30;;;;;;5052711;28;20490;-77
2022/07/26 07:04:07;;;;;;;9.90;2.60;;;23.50;58.40;;;;;;5054014;28;20489;-77
2022/07/26 07:06:33;;;;;;;13.27;3.58;;;23.50;58.40;;;;;;5052517;28;20060;-77
2022/07/26 07:08:59;;;;;;;12.43;3.70;;;23.50;58.50;;;;;;5052823;28;20021;-77
2022/07/26 07:11:24;;;;;;;13.05;3.47;;;23.50;58.60;;;;;;5052586;28;20029;-77
2022/07/26 07:13:50;;;;;;;15.15;3.58;;;23.40;58.60;;;;;;5053585;28;20522;-77
2022/07/26 07:16:16;;;;;;;11.20;3.55;;;23.40;58.60;;;;;;5052036;28;20494;-77
2022/07/26 07:18:41;;;;;;;12.63;3.50;;;23.40;58.70;;;;;;5051439;28;20060;-77
2022/07/26 07:21:07;;;;;;;16.13;3.33;;;23.50;58.70;;;;;;5053469;28;20036;-77
2022/07/26 07:23:33;;;;;;;10.43;3.38;;;23.40;58.70;;;;;;5053401;28;20017;-77
2022/07/26 07:25:58;;;;;;;14.73;4.10;;;23.40;58.80;;;;;;5053464;28;20376;-77
2022/07/26 07:28:24;;;;;;;16.48;4.07;;;23.40;58.70;;;;;;5036227;28;20021;-77
2022/07/26 07:30:50;;;;;;;10.77;3.15;;;23.40;58.70;;;;;;5033363;28;20089;-77
2022/07/26 07:33:16;;;;;;;13.35;3.70;;;23.40;58.70;;;;;;5033262;28;20104;-77
2022/07/26 07:35:42;;;;;;;18.00;3.83;;;23.40;58.80;;;;;;5033218;28;20018;-77
2022/07/26 07:38:08;;;;;;;11.48;3.50;;;23.40;58.80;;;;;;5065368;28;20393;-77
2022/07/26 07:40:33;;;;;;;12.15;3.85;;;23.40;58.70;;;;;;5033244;28;20096;-77
2022/07/26 07:42:59;;;;;;;13.43;3.72;;;23.40;58.80;;;;;;5033323;28;20442;-77
2022/07/26 07:45:25;;;;;;;13.27;3.92;;;23.40;58.70;;;;;;5033389;28;20100;-77
2022/07/26 07:47:51;;;;;;;12.63;4.30;;;23.40;58.70;;;;;;5033240;28;20476;-77
2022/07/26 07:50:16;;;;;;;15.20;4.18;;;23.40;58.70;;;;;;5032989;28;20460;-77
2022/07/26 07:52:42;;;;;;;16.73;4.28;;;23.40;58.70;;;;;;5033106;28;20031;-77
2022/07/26 07:55:08;;;;;;;11.88;4.13;;;23.40;58.70;;;;;;5033294;28;20033;-77
2022/07/26 07:57:35;;;;;;;11.55;3.88;;;23.40;58.70;;;;;;5064950;28;20029;-77
2022/07/26 08:00:02;;;;;;;12.52;3.95;;;23.40;58.70;;;;;;5064443;28;20052;-77
2022/07/26 08:02:28;;;;;;;13.05;4.38;;;23.40;58.70;;;;;;5048023;28;20381;-77
2022/07/26 08:04:54;;;;;;;10.90;4.25;;;23.40;58.70;;;;;;5032793;28;20041;-77
2022/07/26 08:07:20;;;;;;;11.18;4.05;;;23.40;58.70;;;;;;5064858;28;20120;-77
2022/07/26 08:09:45;;;;;;;12.80;3.80;;;23.40;59.70;;;;;;5064828;28;20542;-77
2022/07/26 08:12:11;;;;;;;12.05;3.95;;;23.40;58.70;;;;;;5064620;28;20080;-77
2022/07/26 08:14:37;;;;;;;12.07;3.33;;;23.40;58.70;;;;;;5032742;28;20013;-77
2022/07/26 08:17:02;;;;;;;13.65;4.53;;;23.40;58.70;;;;;;5080852;28;20029;-77
2022/07/26 08:19:28;;;;;;;11.05;3.53;;;23.40;58.70;;;;;;5051244;28;20025;-77
2022/07/26 08:21:53;;;;;;;10.35;3.60;;;23.40;58.70;;;;;;5052368;28;20029;-77
2022/07/26 08:24:19;;;;;;;12.05;3.90;;;23.40;58.70;;;;;;5051384;28;20025;-77
2022/07/26 08:26:45;;;;;;;11.18;3.50;;;23.40;58.70;;;;;;5052379;28;20025;-77
2022/07/26 08:29:12;;;;;;;10.38;3.53;;;23.30;58.60;;;;;;5051406;28;20450;-77
2022/07/26 08:31:38;;;;;;;9.35;3.65;;;23.30;58.60;;;;;;5052349;28;20060;-77
2022/07/26 08:34:03;;;;;;;10.32;3.53;;;23.40;58.70;;;;;;5052332;28;20017;-77
2022/07/26 08:36:29;;;;;;;12.40;3.58;;;23.30;58.60;;;;;;5051167;28;20555;-77
2022/07/26 08:38:54;;;;;;;12.30;3.55;;;23.30;58.60;;;;;;5051430;28;20104;-77
2022/07/26 08:41:21;;;;;;;10.80;3.75;;;23.30;58.60;;;;;;5052322;28;20403;-77
2022/07/26 08:43:47;;;;;;;9.93;3.53;;;23.30;58.60;;;;;;5051107;28;20017;-77
2022/07/26 08:46:13;;;;;;;7.47;3.33;;;23.40;58.70;;;;;;5051665;28;20021;-77
2022/07/26 08:48:38;;;;;;;10.45;3.45;;;23.30;58.60;;;;;;5052033;28;20025;-77
2022/07/26 08:51:08;;;;;;;9.75;3.33;;;23.30;58.60;;;;;;5051055;28;20025;-77
2022/07/26 08:53:35;;;;;;;7.78;3.40;;;23.30;58.60;;;;;;5051109;28;20487;-77
2022/07/26 08:56:00;;;;;;;11.52;4.13;;;23.30;58.60;;;;;;5051179;28;20151;-77
2022/07/26 08:58:26;;;;;;;7.45;3.10;;;23.30;58.60;;;;;;5052390;28;20099;-77
2022/07/26 09:01:05;;;;;;;7.82;3.45;;;23.30;58.60;;;;;;5051857;28;20459;-77
2022/07/26 09:03:30;;;;;;;10.05;3.50;;;23.30;58.60;;;;;;5052058;28;20025;-77
2022/07/26 09:05:59;;;;;;;6.88;3.03;;;23.30;58.60;;;;;;5052023;28;20078;-77
2022/07/26 09:08:26;;;;;;;7.75;3.20;;;23.30;58.60;;;;;;5018786;28;20025;-77
2022/07/26 09:10:52;;;;;;;6.18;2.92;;;23.30;58.50;;;;;;5050728;28;20102;-77
2022/07/26 09:13:19;;;;;;;8.55;3.30;;;23.30;58.50;;;;;;5051963;28;20100;-77
2022/07/26 09:15:44;;;;;;;9.70;3.50;;;23.30;58.50;;;;;;5051627;28;20024;-77
2022/07/26 09:18:24;;;;;;;8.32;3.40;;;23.30;58.90;;;;;;5050856;28;20036;-77
2022/07/26 09:20:50;;;;;;;5.25;3.03;;;23.20;58.40;;;;;;5051826;28;20386;-77
2022/07/26 09:23:16;;;;;;;6.20;3.28;;;23.30;58.50;;;;;;5051842;28;20025;-77
2022/07/26 09:25:43;;;;;;;9.30;3.20;;;23.20;58.40;;;;;;5050714;28;20067;-77
2022/07/26 09:28:23;;;;;;;9.68;3.35;;;23.30;58.50;;;;;;5050779;28;20483;-77
2022/07/26 09:30:55;;;;;;;4.80;2.58;;;23.20;58.40;;;;;;5050528;28;20071;-77
2022/07/26 09:33:21;;;;;;;10.88;3.20;;;23.20;58.40;;;;;;5050685;28;20033;-77
2022/07/26 09:36:01;;;;;;;6.90;3.00;;;23.30;58.50;;;;;;5050514;28;20078;-77
2022/07/26 09:38:40;;;;;;;10.55;2.90;;;23.20;58.40;;;;;;5050849;28;20024;-77
2022/07/26 09:41:22;;;;;;;6.45;2.90;;;23.30;58.50;;;;;;5050568;28;20112;-77
2022/07/26 09:43:48;;;;;;;5.33;2.73;;;23.30;58.40;;;;;;5050734;28;20025;-77
2022/07/26 09:46:14;;;;;;;9.57;3.30;;;23.20;58.40;;;;;;5050496;28;20291;-77
2022/07/26 09:48:40;;;;;;;9.82;3.03;;;23.20;58.40;;;;;;5050487;28;20102;-77
2022/07/26 09:51:06;;;;;;;10.50;3.30;;;23.20;58.40;;;;;;5050752;28;20045;-77
2022/07/26 09:53:39;;;;;;;5.90;2.70;;;23.30;58.50;;;;;;5050352;28;20130;-77
2022/07/26 09:56:05;;;;;;;6.43;3.03;;;23.30;58.50;;;;;;5051791;28;20025;-77
2022/07/26 09:58:31;;;;;;;8.30;3.25;;;23.30;58.50;;;;;;5053887;28;20017;-77
2022/07/26 10:00:56;;;;;;;6.15;2.47;;;23.20;58.40;;;;;;5053880;28;20029;-77
2022/07/26 10:03:22;;;;;;;6.63;2.47;;;23.20;58.40;;;;;;5055123;28;20484;-77
2022/07/26 10:05:48;;;;;;;7.15;2.40;;;23.30;58.50;;;;;;5053898;28;20037;-77
2022/07/26 10:08:13;;;;;;;6.38;2.85;;;23.20;58.40;;;;;;5053988;28;20379;-77
2022/07/26 10:10:45;;;;;;;4.82;2.63;;;23.20;58.40;;;;;;5053752;28;20079;-77
2022/07/26 10:13:11;;;;;;;6.38;2.92;;;23.20;58.40;;;;;;5053718;28;20095;-77
2022/07/26 10:15:49;;;;;;;7.65;2.60;;;23.30;58.50;;;;;;5053483;28;20457;-77
2022/07/26 10:18:36;;;;;;;6.15;2.88;;;23.20;58.50;;;;;;5053893;28;20098;-77
2022/07/26 10:21:19;;;;;;;6.25;2.60;;;23.30;58.50;;;;;;5054813;28;20040;-77
2022/07/26 10:23:46;;;;;;;5.80;2.50;;;23.20;58.40;;;;;;5053560;28;20045;-77
2022/07/26 10:26:31;;;;;;;4.82;2.60;;;23.20;58.50;;;;;;5053733;28;20395;-77
2022/07/26 10:29:18;;;;;;;6.80;3.15;;;23.30;58.60;;;;;;5050496;28;20029;-77
2022/07/26 10:31:47;;;;;;;4.90;2.22;;;23.30;58.60;;;;;;5054491;28;20036;-77
2022/07/26 10:34:32;;;;;;;5.72;2.72;;;23.20;58.50;;;;;;5054626;28;20032;-77
2022/07/26 10:37:03;;;;;;;5.85;2.65;;;23.20;58.60;;;;;;5054550;28;20446;-77
2022/07/26 10:39:28;;;;;;;6.97;2.55;;;23.20;58.60;;;;;;5053413;28;20032;-77
2022/07/26 10:41:59;;;;;;;4.55;2.55;;;23.20;58.70;;;;;;5054277;28;20407;-77
2022/07/26 10:44:30;;;;;;;4.70;2.38;;;23.20;58.60;;;;;;5053213;28;20380;-77
2022/07/26 10:47:07;;;;;;;5.55;2.20;;;23.20;58.60;;;;;;5053131;28;20190;-77
2022/07/26 10:50:04;;;;;;;4.57;1.98;;;23.20;58.70;;;;;;5054768;28;20033;-77
2022/07/26 10:52:30;;;;;;;5.57;2.38;;;23.20;58.70;;;;;;5050011;28;20033;-77
2022/07/26 10:54:56;;;;;;;5.10;2.53;;;23.20;58.80;;;;;;5053009;28;20120;-77
2022/07/26 10:57:26;;;;;;;4.72;2.50;;;23.20;58.90;;;;;;5054057;28;20035;-77
2022/07/26 10:59:55;;;;;;;6.68;2.88;;;23.20;58.80;;;;;;5052796;28;20368;-76
2022/07/26 11:02:21;;;;;;;5.45;2.15;;;23.20;58.90;;;;;;5053042;28;20025;-77
2022/07/26 11:04:48;;;;;;;5.88;2.40;;;23.20;58.80;;;;;;5052794;28;20044;-77
2022/07/26 11:07:13;;;;;;;4.00;2.15;;;23.20;58.80;;;;;;5052956;28;20028;-77
2022/07/26 11:09:39;;;;;;;4.57;2.35;;;23.30;58.90;;;;;;5052137;28;20025;-77
2022/07/26 11:12:16;;;;;;;5.28;2.75;;;23.30;59.90;;;;;;5053520;28;20103;-77
2022/07/26 11:14:41;;;;;;;6.25;2.67;;;23.20;58.90;;;;;;5052574;28;20545;-77
2022/07/26 11:17:07;;;;;;;5.60;2.83;;;23.20;58.90;;;;;;5053783;28;20033;-77
2022/07/26 11:19:38;;;;;;;5.18;2.50;;;23.20;59.00;;;;;;5052625;28;20021;-77
2022/07/26 11:22:03;;;;;;;5.13;2.75;;;23.20;58.90;;;;;;5052486;28;20487;-77
2022/07/26 11:24:30;;;;;;;5.00;2.72;;;23.20;59.00;;;;;;5053583;28;20053;-77
2022/07/26 11:27:01;;;;;;;6.22;2.50;;;23.20;59.00;;;;;;5053441;28;20406;-77
2022/07/26 11:29:27;;;;;;;5.05;2.78;;;23.20;59.00;;;;;;5036219;28;20025;-77
2022/07/26 11:31:53;;;;;;;4.88;2.45;;;23.20;59.00;;;;;;5053477;28;20031;-77
2022/07/26 11:34:21;;;;;;;4.97;2.67;;;23.20;59.00;;;;;;5053610;28;20128;-77
2022/07/26 11:36:47;;;;;;;4.57;2.80;;;23.20;59.00;;;;;;5052138;28;20048;-77
2022/07/26 11:39:34;;;;;;;5.30;2.75;;;23.20;59.00;;;;;;5052043;28;20025;-77
2022/07/26 11:42:04;;;;;;;5.00;3.00;;;23.20;59.00;;;;;;5052639;28;20068;-77
2022/07/26 11:44:30;;;;;;;6.13;2.78;;;23.30;59.20;;;;;;5053180;28;20017;-77
2022/07/26 11:46:56;;;;;;;6.28;3.00;;;23.20;59.00;;;;;;5035386;28;20024;-77
2022/07/26 11:49:29;;;;;;;5.20;2.80;;;23.20;59.10;;;;;;5035493;28;20029;-77
2022/07/26 11:51:55;;;;;;;4.10;2.83;;;23.20;59.10;;;;;;5051684;28;20021;-77
2022/07/26 11:54:22;;;;;;;5.15;3.10;;;23.20;59.10;;;;;;5053158;28;20033;-77
2022/07/26 11:56:54;;;;;;;5.80;2.97;;;23.20;59.10;;;;;;5051691;28;20064;-77
2022/07/26 11:59:19;;;;;;;5.03;3.13;;;23.20;59.10;;;;;;5052974;28;20054;-77
2022/07/26 12:01:45;;;;;;;3.83;2.85;;;23.20;59.20;;;;;;5051653;28;20100;-77
2022/07/26 12:04:22;;;;;;;5.05;2.80;;;23.20;59.20;;;;;;5035109;28;20370;-77
2022/07/26 12:06:48;;;;;;;5.38;3.20;;;23.20;59.10;;;;;;5051787;28;20013;-77
2022/07/26 12:09:33;;;;;;;5.35;3.03;;;23.20;59.20;;;;;;5035088;28;20070;-77
2022/07/26 12:11:59;;;;;;;4.20;2.75;;;23.20;59.20;;;;;;5052467;28;20052;-77
2022/07/26 12:14:29;;;;;;;4.10;2.70;;;23.20;59.20;;;;;;5051667;28;20030;-77
2022/07/26 12:16:55;;;;;;;3.58;2.50;;;23.20;59.20;;;;;;5035263;28;20032;-77
2022/07/26 12:19:20;;;;;;;4.63;2.70;;;23.20;59.20;;;;;;5051579;28;20029;-77
2022/07/26 12:21:48;;;;;;;3.25;2.60;;;23.20;59.20;;;;;;5050323;28;20017;-77
2022/07/26 12:24:54;;;;;;;4.95;2.75;;;23.20;60.20;;;;;;5051350;28;20029;-77
2022/07/26 12:27:22;;;;;;;5.10;2.75;;;23.30;59.20;;;;;;5052689;28;20092;-77
2022/07/26 12:29:51;;;;;;;5.35;2.75;;;23.20;59.20;;;;;;5034957;28;20033;-77
2022/07/26 12:32:17;;;;;;;5.68;2.80;;;23.30;59.20;;;;;;5052444;28;20438;-77
2022/07/26 12:35:06;;;;;;;4.00;2.75;;;23.20;59.20;;;;;;5051280;28;20108;-77
2022/07/26 12:37:33;;;;;;;5.38;2.90;;;23.20;59.20;;;;;;5051523;28;20060;-77
2022/07/26 12:40:02;;;;;;;4.47;2.78;;;23.20;59.20;;;;;;5034378;28;20038;-77
2022/07/26 12:42:37;;;;;;;2.90;2.60;;;23.20;59.20;;;;;;5052389;28;20021;-77
2022/07/26 12:45:06;;;;;;;4.82;2.90;;;23.20;59.20;;;;;;5051264;28;20029;-77
2022/07/26 12:47:32;;;;;;;4.20;2.55;;;23.20;59.20;;;;;;5034888;28;20394;-77
2022/07/26 12:49:57;;;;;;;3.92;2.60;;;23.20;59.20;;;;;;5052154;28;20017;-77